Time;durP1;ratioP1;P1;durP2;ratioP2;P2;SDS_P1;SDS_P2;PMS_P1;PMS_P2;Temp;Humidity;BMP_temperature;BMP_pressure;BME280_temperature;BME280_humidity;BME280_pressure;Samples;Min_cycle;Max_cycle;Signal;HPM_P1;HPM_P2
2022/05/13 00:00:38;;;;;;;;;0.50;0.50;;;;;;;;5032938;28;45597;-67
2022/05/13 00:03:04;;;;;;;;;2.00;1.00;;;;;;;;5031701;28;45679;-65
2022/05/13 00:05:29;;;;;;;;;0.50;0.50;;;;;;;;5033831;28;45369;-66
2022/05/13 00:07:54;;;;;;;;;2.75;1.00;;;;;;;;5034191;28;45384;-66
2022/05/13 00:10:19;;;;;;;;;1.50;1.50;;;;;;;;5036813;28;45447;-66
2022/05/13 00:12:45;;;;;;;;;1.00;1.00;;;;;;;;5036363;28;45703;-66
2022/05/13 00:15:12;;;;;;;;;1.75;1.00;;;;;;;;5036647;28;45513;-66
2022/05/13 00:17:38;;;;;;;;;3.00;2.25;;;;;;;;5036770;28;45481;-66
2022/05/13 00:20:04;;;;;;;;;1.25;1.25;;;;;;;;5038693;28;46820;-66
2022/05/13 00:22:29;;;;;;;;;1.00;1.00;;;;;;;;5034792;28;47531;-66
2022/05/13 00:24:55;;;;;;;;;1.00;1.00;;;;;;;;5034308;28;45433;-66
2022/05/13 00:27:21;;;;;;;;;1.00;1.00;;;;;;;;5034516;28;45479;-66
2022/05/13 00:29:46;;;;;;;;;1.00;1.00;;;;;;;;5036443;28;45559;-66
2022/05/13 00:32:11;;;;;;;;;2.00;0.00;;;;;;;;5038287;28;46949;-66
2022/05/13 00:34:36;;;;;;;;;0.75;0.50;;;;;;;;5036018;28;45460;-66
2022/05/13 00:37:02;;;;;;;;;1.00;1.00;;;;;;;;5036331;28;45393;-66
2022/05/13 00:39:27;;;;;;;;;2.00;2.00;;;;;;;;5036160;28;45365;-65
2022/05/13 00:41:53;;;;;;;;;2.25;1.00;;;;;;;;5034851;28;47544;-66
2022/05/13 00:44:18;;;;;;;;;0.25;0.25;;;;;;;;5038509;28;45535;-65
2022/05/13 00:46:44;;;;;;;;;2.00;0.50;;;;;;;;5034688;28;45448;-66
2022/05/13 00:49:11;;;;;;;;;0.75;0.75;;;;;;;;5034563;28;45256;-65
2022/05/13 00:51:38;;;;;;;;;1.00;1.00;;;;;;;;5035513;28;45728;-65
2022/05/13 00:54:05;;;;;;;;;2.00;1.25;;;;;;;;5035890;28;45443;-66
2022/05/13 00:56:30;;;;;;;;;0.25;0.25;;;;;;;;5034116;28;45313;-66
2022/05/13 00:58:57;;;;;;;;;1.25;1.25;;;;;;;;5037345;28;45428;-66
2022/05/13 01:01:23;;;;;;;;;5.25;1.00;;;;;;;;5035597;28;45818;-67
2022/05/13 01:03:49;;;;;;;;;1.50;1.00;;;;;;;;5035375;28;45466;-66
2022/05/13 01:06:15;;;;;;;;;1.25;1.25;;;;;;;;5035747;28;45393;-65
2022/05/13 01:08:41;;;;;;;;;0.50;0.50;;;;;;;;5035868;28;45516;-65
2022/05/13 01:11:09;;;;;;;;;1.00;1.00;;;;;;;;5037698;28;45353;-66
2022/05/13 01:13:37;;;;;;;;;1.25;1.00;;;;;;;;5035533;28;45372;-66
2022/05/13 01:16:02;;;;;;;;;2.00;2.00;;;;;;;;5034287;28;45503;-66
2022/05/13 01:18:35;;;;;;;;;1.00;1.00;;;;;;;;5034364;28;45484;-66
2022/05/13 01:21:02;;;;;;;;;1.25;1.25;;;;;;;;5048449;28;48821;-66
2022/05/13 01:23:32;;;;;;;;;1.00;1.00;;;;;;;;5036851;28;45411;-66
2022/05/13 01:25:59;;;;;;;;;1.00;1.00;;;;;;;;5037582;28;45488;-66
2022/05/13 01:28:26;;;;;;;;;1.00;1.00;;;;;;;;5033995;28;45658;-66
2022/05/13 01:30:53;;;;;;;;;1.00;1.00;;;;;;;;5033546;28;46566;-66
2022/05/13 01:33:19;;;;;;;;;2.75;2.75;;;;;;;;5034063;28;45417;-66
2022/05/13 01:35:46;;;;;;;;;0.00;0.00;;;;;;;;5033366;28;45425;-65
2022/05/13 01:38:11;;;;;;;;;2.00;2.00;;;;;;;;5048798;28;47349;-65
2022/05/13 01:40:37;;;;;;;;;2.00;2.00;;;;;;;;5031126;28;46413;-66
2022/05/13 01:43:03;;;;;;;;;1.00;1.00;;;;;;;;5033346;28;45573;-66
2022/05/13 01:45:28;;;;;;;;;1.00;1.00;;;;;;;;5035455;28;45445;-66
2022/05/13 01:47:54;;;;;;;;;1.00;1.00;;;;;;;;5033955;28;45595;-66
2022/05/13 01:50:20;;;;;;;;;1.00;1.00;;;;;;;;5036748;28;46392;-66
2022/05/13 01:52:45;;;;;;;;;1.00;1.00;;;;;;;;5033140;28;45473;-65
2022/05/13 01:55:10;;;;;;;;;1.00;1.00;;;;;;;;5035047;28;45421;-65
2022/05/13 01:57:36;;;;;;;;;1.50;1.00;;;;;;;;5035177;28;45450;-65
2022/05/13 02:00:02;;;;;;;;;2.00;2.00;;;;;;;;5015904;28;48277;-66
2022/05/13 02:02:27;;;;;;;;;1.75;1.75;;;;;;;;5049236;28;45568;-66
2022/05/13 02:04:53;;;;;;;;;2.00;0.00;;;;;;;;5032495;28;45374;-65
2022/05/13 02:07:18;;;;;;;;;2.00;2.00;;;;;;;;5029849;28;45558;-66
2022/05/13 02:09:44;;;;;;;;;1.25;1.25;;;;;;;;5050124;28;49060;-66
2022/05/13 02:12:10;;;;;;;;;1.75;1.75;;;;;;;;5035015;28;45287;-65
2022/05/13 02:14:35;;;;;;;;;3.75;2.25;;;;;;;;5034796;28;45353;-66
2022/05/13 02:17:00;;;;;;;;;3.25;2.75;;;;;;;;5035518;28;45343;-65
2022/05/13 02:19:25;;;;;;;;;2.50;2.00;;;;;;;;5032930;28;45815;-65
2022/05/13 02:21:50;;;;;;;;;1.75;1.75;;;;;;;;5033185;28;45690;-65
2022/05/13 02:24:16;;;;;;;;;3.75;2.25;;;;;;;;5033798;28;45408;-66
2022/05/13 02:26:41;;;;;;;;;2.00;2.00;;;;;;;;5049786;28;45538;-65
2022/05/13 02:29:06;;;;;;;;;5.00;3.25;;;;;;;;5035458;28;45432;-65
2022/05/13 02:31:31;;;;;;;;;2.00;2.00;;;;;;;;5033785;28;45367;-64
2022/05/13 02:33:58;;;;;;;;;5.50;2.25;;;;;;;;5046523;28;45302;-64
2022/05/13 02:36:23;;;;;;;;;2.00;2.00;;;;;;;;5021883;28;45592;-66
2022/05/13 02:38:48;;;;;;;;;2.75;2.00;;;;;;;;5032901;28;46096;-65
2022/05/13 02:41:14;;;;;;;;;2.00;2.00;;;;;;;;5031640;28;45926;-65
2022/05/13 02:43:49;;;;;;;;;3.00;1.75;;;;;;;;5034042;28;45456;-65
2022/05/13 02:46:16;;;;;;;;;2.25;1.00;;;;;;;;5034399;28;45662;-65
2022/05/13 02:48:41;;;;;;;;;5.00;2.00;;;;;;;;5034013;28;45717;-65
2022/05/13 02:51:06;;;;;;;;;3.25;2.50;;;;;;;;5033991;28;45445;-64
2022/05/13 02:53:32;;;;;;;;;3.00;3.00;;;;;;;;5034742;28;45386;-65
2022/05/13 02:55:57;;;;;;;;;1.25;1.25;;;;;;;;5031317;28;45332;-65
2022/05/13 02:58:22;;;;;;;;;2.00;2.00;;;;;;;;5030996;28;46490;-66
2022/05/13 03:00:47;;;;;;;;;3.00;2.00;;;;;;;;5029441;28;45364;-65
2022/05/13 03:03:13;;;;;;;;;3.25;1.75;;;;;;;;5020306;28;45492;-65
2022/05/13 03:05:38;;;;;;;;;5.00;3.00;;;;;;;;5033904;28;45296;-66
2022/05/13 03:08:04;;;;;;;;;2.00;2.00;;;;;;;;5034500;28;47586;-65
2022/05/13 03:10:30;;;;;;;;;6.25;4.00;;;;;;;;5031993;28;45437;-66
2022/05/13 03:12:56;;;;;;;;;4.00;3.00;;;;;;;;5033589;28;45349;-66
2022/05/13 03:15:21;;;;;;;;;2.50;2.50;;;;;;;;5033463;28;45492;-66
2022/05/13 03:17:47;;;;;;;;;6.75;6.75;;;;;;;;5049116;28;47719;-65
2022/05/13 03:20:14;;;;;;;;;5.50;5.50;;;;;;;;5047977;28;45888;-66
2022/05/13 03:22:39;;;;;;;;;6.00;4.00;;;;;;;;5031372;28;45329;-66
2022/05/13 03:25:04;;;;;;;;;6.00;6.00;;;;;;;;5033590;28;45507;-65
2022/05/13 03:27:31;;;;;;;;;8.50;5.50;;;;;;;;5032944;28;46223;-67
2022/05/13 03:29:57;;;;;;;;;7.75;6.75;;;;;;;;5030447;28;45694;-66
2022/05/13 03:32:22;;;;;;;;;5.00;4.75;;;;;;;;5022545;28;45584;-66
2022/05/13 03:34:47;;;;;;;;;6.75;6.75;;;;;;;;5016456;28;45607;-66
2022/05/13 03:37:12;;;;;;;;;7.25;7.25;;;;;;;;5026861;28;46630;-67
2022/05/13 03:39:37;;;;;;;;;8.75;7.50;;;;;;;;5033045;28;45300;-67
2022/05/13 03:42:03;;;;;;;;;8.00;7.00;;;;;;;;5019185;28;45468;-66
2022/05/13 03:44:28;;;;;;;;;10.75;8.00;;;;;;;;5025596;28;45482;-66
2022/05/13 03:46:54;;;;;;;;;8.00;5.00;;;;;;;;5032363;28;45511;-66
2022/05/13 03:49:19;;;;;;;;;4.50;4.50;;;;;;;;5025695;28;45554;-67
2022/05/13 03:51:44;;;;;;;;;9.25;6.25;;;;;;;;5033066;28;45330;-66
2022/05/13 03:54:09;;;;;;;;;5.75;4.50;;;;;;;;5020691;28;45450;-65
2022/05/13 03:56:34;;;;;;;;;8.50;6.25;;;;;;;;5030364;28;48335;-66
2022/05/13 03:59:00;;;;;;;;;5.00;5.00;;;;;;;;5033547;28;45987;-66
2022/05/13 04:01:26;;;;;;;;;5.75;4.25;;;;;;;;5047357;28;45477;-66
2022/05/13 04:03:51;;;;;;;;;6.75;6.75;;;;;;;;5032310;28;45290;-66
2022/05/13 04:09:02;;;;;;;;;8.00;6.50;;;;;;;;5025718;28;45496;-65
2022/05/13 04:11:28;;;;;;;;;8.00;6.75;;;;;;;;5028676;28;45421;-66
2022/05/13 04:16:37;;;;;;;;;6.00;6.00;;;;;;;;5030756;28;45570;-65
2022/05/13 04:19:04;;;;;;;;;6.00;5.00;;;;;;;;5030059;28;45548;-65
2022/05/13 04:21:30;;;;;;;;;6.00;5.75;;;;;;;;5030560;28;45380;-65
2022/05/13 04:23:57;;;;;;;;;6.25;6.25;;;;;;;;5027678;28;45462;-65
2022/05/13 04:26:22;;;;;;;;;5.50;4.75;;;;;;;;5026976;28;48378;-66
2022/05/13 04:28:49;;;;;;;;;7.00;5.75;;;;;;;;5027836;28;46331;-66
2022/05/13 04:31:16;;;;;;;;;4.75;4.00;;;;;;;;5031765;28;45388;-65
2022/05/13 04:33:41;;;;;;;;;7.25;5.25;;;;;;;;5029817;28;45432;-65
2022/05/13 04:36:07;;;;;;;;;7.00;4.00;;;;;;;;5026437;28;45617;-64
2022/05/13 04:38:33;;;;;;;;;6.50;5.00;;;;;;;;5042101;28;46092;-65
2022/05/13 04:42:49;;;;;;;;;5.50;5.50;;;;;;;;5028487;28;45404;-65
2022/05/13 04:43:43;;;;;;;;;7.00;5.25;;;;;;;;5034621;28;45630;-66
2022/05/13 04:46:08;;;;;;;;;4.00;4.00;;;;;;;;5033852;28;46614;-66
2022/05/13 04:48:34;;;;;;;;;4.25;4.25;;;;;;;;5034821;28;45349;-65
2022/05/13 04:50:59;;;;;;;;;4.00;4.00;;;;;;;;5032699;28;45421;-66
2022/05/13 04:53:29;;;;;;;;;5.75;5.50;;;;;;;;5032198;28;45247;-66
2022/05/13 04:55:55;;;;;;;;;4.50;4.50;;;;;;;;5035199;28;47344;-66
2022/05/13 04:58:22;;;;;;;;;3.25;3.25;;;;;;;;5035133;28;45632;-65
2022/05/13 05:00:48;;;;;;;;;3.50;3.50;;;;;;;;5032711;28;45392;-65
2022/05/13 05:03:14;;;;;;;;;7.00;5.00;;;;;;;;5034273;28;45571;-66
2022/05/13 05:05:42;;;;;;;;;4.00;4.00;;;;;;;;5035559;28;45643;-66
2022/05/13 05:08:08;;;;;;;;;6.25;6.25;;;;;;;;5050949;28;46063;-66
2022/05/13 05:10:33;;;;;;;;;4.25;4.25;;;;;;;;5051136;28;45502;-66
2022/05/13 05:12:58;;;;;;;;;5.00;3.75;;;;;;;;5036768;28;45357;-64
2022/05/13 05:15:24;;;;;;;;;5.00;4.00;;;;;;;;5035126;28;46019;-66
2022/05/13 05:17:50;;;;;;;;;4.00;4.00;;;;;;;;5035517;28;45374;-65
2022/05/13 05:20:15;;;;;;;;;5.25;4.25;;;;;;;;5034505;28;45484;-65
2022/05/13 05:22:44;;;;;;;;;6.75;5.00;;;;;;;;5035792;28;45217;-66
2022/05/13 05:25:09;;;;;;;;;5.00;5.00;;;;;;;;5035513;28;45720;-66
2022/05/13 05:27:36;;;;;;;;;2.25;2.25;;;;;;;;5036068;28;46158;-65
2022/05/13 05:30:03;;;;;;;;;3.50;3.00;;;;;;;;5047766;28;45498;-66
2022/05/13 05:32:28;;;;;;;;;5.00;2.00;;;;;;;;5024879;28;45537;-67
2022/05/13 05:34:53;;;;;;;;;3.00;3.00;;;;;;;;5033416;28;45612;-67
2022/05/13 05:37:19;;;;;;;;;3.00;3.00;;;;;;;;5050307;28;46061;-68
2022/05/13 05:39:44;;;;;;;;;4.75;4.75;;;;;;;;5037482;28;45260;-68
2022/05/13 05:42:09;;;;;;;;;5.25;4.25;;;;;;;;5047253;28;45311;-68
2022/05/13 05:44:34;;;;;;;;;3.50;3.00;;;;;;;;5041667;28;47495;-67
2022/05/13 05:47:00;;;;;;;;;3.00;2.00;;;;;;;;5024899;28;45445;-67
2022/05/13 05:49:25;;;;;;;;;5.00;3.50;;;;;;;;5035530;28;45354;-66
2022/05/13 05:51:50;;;;;;;;;6.25;5.00;;;;;;;;5036510;28;46023;-68
2022/05/13 05:57:14;;;;;;;;;4.25;3.00;;;;;;;;5032662;28;45557;-67
2022/05/13 05:59:40;;;;;;;;;4.25;3.75;;;;;;;;5032777;28;45518;-68
2022/05/13 06:02:06;;;;;;;;;3.00;3.00;;;;;;;;5018195;28;45470;-67
2022/05/13 06:04:32;;;;;;;;;2.00;2.00;;;;;;;;5022481;28;45771;-69
2022/05/13 06:06:57;;;;;;;;;4.00;4.00;;;;;;;;5025467;28;45421;-68
2022/05/13 06:09:22;;;;;;;;;4.50;4.50;;;;;;;;5019302;28;45465;-68
2022/05/13 06:11:48;;;;;;;;;5.00;4.00;;;;;;;;5029407;28;45471;-68
2022/05/13 06:14:13;;;;;;;;;5.50;4.75;;;;;;;;5034459;28;46323;-68
2022/05/13 06:16:38;;;;;;;;;3.75;2.00;;;;;;;;5033224;28;45457;-68
2022/05/13 06:19:03;;;;;;;;;4.50;4.25;;;;;;;;5025388;28;45439;-68
2022/05/13 06:21:31;;;;;;;;;3.75;3.75;;;;;;;;5049966;28;45624;-67
2022/05/13 06:23:56;;;;;;;;;6.50;4.75;;;;;;;;5030474;28;45866;-67
2022/05/13 06:26:22;;;;;;;;;4.00;3.50;;;;;;;;5026899;28;45495;-69
2022/05/13 06:28:47;;;;;;;;;4.50;3.00;;;;;;;;5018529;28;45478;-67
2022/05/13 06:31:12;;;;;;;;;2.25;2.25;;;;;;;;5029099;28;45489;-67
2022/05/13 06:33:38;;;;;;;;;3.50;3.50;;;;;;;;5026720;28;46368;-67
2022/05/13 06:36:03;;;;;;;;;4.75;3.00;;;;;;;;5043774;28;45575;-68
2022/05/13 06:38:28;;;;;;;;;4.75;3.75;;;;;;;;5026357;28;45479;-67
2022/05/13 06:40:54;;;;;;;;;3.00;3.00;;;;;;;;5018157;28;45472;-67
2022/05/13 06:43:20;;;;;;;;;3.25;3.25;;;;;;;;5033012;28;46679;-68
2022/05/13 06:45:45;;;;;;;;;3.00;3.00;;;;;;;;5031383;28;45429;-66
2022/05/13 06:48:10;;;;;;;;;3.00;3.00;;;;;;;;5029884;28;45231;-66
2022/05/13 06:50:36;;;;;;;;;2.75;2.75;;;;;;;;5043671;28;45517;-67
2022/05/13 06:53:01;;;;;;;;;7.00;4.75;;;;;;;;5028838;28;47678;-66
2022/05/13 06:55:27;;;;;;;;;4.00;3.25;;;;;;;;5032215;28;45381;-67
2022/05/13 06:57:52;;;;;;;;;3.25;2.00;;;;;;;;5030969;28;45320;-66
2022/05/13 07:00:18;;;;;;;;;2.50;2.50;;;;;;;;5030823;28;45302;-66
2022/05/13 07:02:43;;;;;;;;;6.75;4.50;;;;;;;;5025080;28;46608;-67
2022/05/13 07:05:10;;;;;;;;;5.00;4.00;;;;;;;;5028829;28;45503;-66
2022/05/13 07:07:36;;;;;;;;;4.50;4.00;;;;;;;;5032080;28;45465;-66
2022/05/13 07:10:01;;;;;;;;;3.00;3.00;;;;;;;;5030769;28;46136;-66
2022/05/13 07:12:26;;;;;;;;;2.50;2.50;;;;;;;;5052237;28;48348;-66
2022/05/13 07:14:53;;;;;;;;;4.50;3.75;;;;;;;;5027638;28;45366;-66
2022/05/13 07:17:19;;;;;;;;;4.00;3.00;;;;;;;;5044723;28;45504;-67
2022/05/13 07:19:44;;;;;;;;;3.00;3.00;;;;;;;;5020242;28;45392;-68
2022/05/13 07:22:09;;;;;;;;;1.00;1.00;;;;;;;;5033909;28;47627;-67
2022/05/13 07:24:34;;;;;;;;;2.00;2.00;;;;;;;;5034185;28;45407;-67
2022/05/13 07:27:00;;;;;;;;;1.00;1.00;;;;;;;;5033809;28;45385;-67
2022/05/13 07:29:25;;;;;;;;;4.75;1.00;;;;;;;;5033619;28;45460;-67
2022/05/13 07:31:50;;;;;;;;;1.50;1.00;;;;;;;;5033266;28;45417;-67
2022/05/13 07:34:15;;;;;;;;;2.75;1.25;;;;;;;;5031602;28;45389;-66
2022/05/13 07:36:41;;;;;;;;;2.50;1.75;;;;;;;;5034579;28;45250;-68
2022/05/13 07:41:50;;;;;;;;;2.50;1.25;;;;;;;;5031592;28;45460;-69
2022/05/13 07:44:16;;;;;;;;;1.50;0.50;;;;;;;;5033464;28;45361;-67
2022/05/13 07:46:41;;;;;;;;;3.50;2.00;;;;;;;;5030807;28;45527;-67
2022/05/13 07:49:06;;;;;;;;;2.00;2.00;;;;;;;;5032656;28;45426;-67
2022/05/13 07:51:32;;;;;;;;;2.00;2.00;;;;;;;;5035340;28;45943;-67
2022/05/13 07:53:57;;;;;;;;;2.75;2.50;;;;;;;;5032871;28;45487;-67
2022/05/13 07:56:22;;;;;;;;;2.50;2.50;;;;;;;;5045246;28;45530;-66
2022/05/13 07:58:48;;;;;;;;;4.75;3.00;;;;;;;;5019939;28;45429;-66
2022/05/13 08:01:14;;;;;;;;;2.00;2.00;;;;;;;;5031214;28;47672;-66
2022/05/13 08:03:40;;;;;;;;;3.75;2.50;;;;;;;;5033947;28;45316;-67
2022/05/13 08:06:06;;;;;;;;;3.50;2.50;;;;;;;;5031785;28;45538;-66
2022/05/13 08:08:40;;;;;;;;;2.75;2.25;;;;;;;;5031111;28;45567;-67
2022/05/13 08:11:07;;;;;;;;;2.00;2.00;;;;;;;;5031600;28;47661;-66
2022/05/13 08:13:34;;;;;;;;;2.00;2.00;;;;;;;;5031421;28;45729;-66
2022/05/13 08:16:00;;;;;;;;;1.00;1.00;;;;;;;;5034257;28;45465;-66
2022/05/13 08:18:25;;;;;;;;;2.50;1.00;;;;;;;;5034071;28;45464;-67
2022/05/13 08:20:51;;;;;;;;;3.75;2.75;;;;;;;;5044820;28;48671;-67
2022/05/13 08:23:17;;;;;;;;;3.00;1.25;;;;;;;;5040177;28;45562;-66
2022/05/13 08:25:44;;;;;;;;;4.25;3.50;;;;;;;;5033015;28;45439;-67
2022/05/13 08:28:10;;;;;;;;;2.75;1.50;;;;;;;;5031845;28;45278;-67
2022/05/13 08:30:36;;;;;;;;;1.25;1.25;;;;;;;;5035652;28;46652;-66
2022/05/13 08:33:02;;;;;;;;;2.00;1.75;;;;;;;;5034657;28;45560;-67
2022/05/13 08:35:28;;;;;;;;;2.75;2.75;;;;;;;;5048992;28;45429;-65
2022/05/13 08:37:54;;;;;;;;;1.50;1.50;;;;;;;;5026006;28;45532;-66
2022/05/13 08:40:23;;;;;;;;;2.00;2.00;;;;;;;;5049338;28;48903;-66
2022/05/13 08:42:49;;;;;;;;;1.50;1.50;;;;;;;;5038540;28;45347;-67
2022/05/13 08:45:16;;;;;;;;;1.00;1.00;;;;;;;;5034574;28;45416;-66
2022/05/13 08:47:49;;;;;;;;;2.50;1.25;;;;;;;;5034851;28;45405;-68
2022/05/13 08:50:23;;;;;;;;;2.00;1.25;;;;;;;;5034397;28;46111;-67
2022/05/13 08:53:07;;;;;;;;;1.25;0.75;;;;;;;;5034803;28;45579;-66
2022/05/13 08:55:42;;;;;;;;;0.50;0.50;;;;;;;;5018971;28;45248;-67
2022/05/13 08:58:11;;;;;;;;;0.75;0.75;;;;;;;;5036100;28;45292;-66
2022/05/13 09:00:39;;;;;;;;;0.50;0.50;;;;;;;;5036835;28;47572;-68
2022/05/13 09:03:10;;;;;;;;;0.00;0.00;;;;;;;;5034015;28;45631;-66
2022/05/13 09:05:50;;;;;;;;;0.75;0.75;;;;;;;;5034635;28;45377;-67
2022/05/13 09:08:15;;;;;;;;;1.50;0.50;;;;;;;;5035738;28;45613;-67
2022/05/13 09:10:50;;;;;;;;;0.75;0.75;;;;;;;;5035787;28;45794;-66
2022/05/13 09:13:26;;;;;;;;;0.00;0.00;;;;;;;;5036176;28;45405;-67
2022/05/13 09:15:53;;;;;;;;;1.75;1.00;;;;;;;;5034961;28;45311;-66
2022/05/13 09:18:32;;;;;;;;;1.33;0.33;;;;;;;;5035213;28;45270;-68
2022/05/13 09:21:17;;;;;;;;;0.00;0.00;;;;;;;;5035736;28;46491;-67
2022/05/13 09:23:43;;;;;;;;;0.00;0.00;;;;;;;;5034724;28;45453;-67
2022/05/13 09:26:13;;;;;;;;;1.00;1.00;;;;;;;;5035551;28;45283;-67
2022/05/13 09:28:58;;;;;;;;;0.00;0.00;;;;;;;;5035638;28;45556;-68
2022/05/13 09:31:26;;;;;;;;;0.00;0.00;;;;;;;;5033591;28;45428;-66
2022/05/13 09:33:51;;;;;;;;;0.00;0.00;;;;;;;;5037680;28;45404;-66
2022/05/13 09:36:23;;;;;;;;;1.00;0.00;;;;;;;;5034426;28;45701;-66
2022/05/13 09:38:52;;;;;;;;;0.00;0.00;;;;;;;;5035391;28;45373;-68
2022/05/13 09:41:31;;;;;;;;;0.00;0.00;;;;;;;;5034132;28;45290;-68
2022/05/13 09:44:03;;;;;;;;;0.25;0.25;;;;;;;;5049194;28;45349;-68
2022/05/13 09:46:42;;;;;;;;;0.50;0.00;;;;;;;;5033971;28;45382;-67
2022/05/13 09:49:29;;;;;;;;;0.75;0.75;;;;;;;;5035435;28;45172;-68
2022/05/13 09:51:59;;;;;;;;;0.50;0.50;;;;;;;;5033195;28;45764;-67
2022/05/13 09:54:26;;;;;;;;;1.75;0.00;;;;;;;;5034007;28;45397;-68
2022/05/13 09:57:04;;;;;;;;;0.00;0.00;;;;;;;;5033987;28;45273;-67
2022/05/13 09:59:33;;;;;;;;;2.00;1.00;;;;;;;;5033351;28;45465;-66
2022/05/13 10:02:15;;;;;;;;;0.50;0.50;;;;;;;;5034873;28;46449;-65
2022/05/13 10:04:40;;;;;;;;;0.75;0.25;;;;;;;;5035078;28;45777;-66
2022/05/13 10:07:08;;;;;;;;;2.75;1.25;;;;;;;;5035281;28;45434;-66
2022/05/13 10:15:15;;;;;;;;;1.00;1.00;;;;;;;;5034558;28;45361;-68
2022/05/13 10:17:45;;;;;;;;;3.00;3.00;;;;;;;;5032868;28;45338;-67
2022/05/13 10:20:25;;;;;;;;;1.00;1.00;;;;;;;;5032807;28;45573;-67
2022/05/13 10:23:12;;;;;;;;;1.50;0.25;;;;;;;;5031306;28;48663;-67
2022/05/13 10:25:43;;;;;;;;;0.50;0.50;;;;;;;;5021261;28;45379;-67
2022/05/13 10:28:11;;;;;;;;;0.25;0.00;;;;;;;;5034805;28;45559;-67
2022/05/13 10:30:43;;;;;;;;;0.00;0.00;;;;;;;;5036531;28;45413;-66
2022/05/13 10:33:32;;;;;;;;;0.75;0.75;;;;;;;;5032601;28;47553;-66
2022/05/13 10:36:04;;;;;;;;;0.00;0.00;;;;;;;;4954634;28;45478;-67
2022/05/13 10:38:29;;;;;;;;;0.00;0.00;;;;;;;;4938700;28;45468;-66
2022/05/13 10:40:56;;;;;;;;;0.00;0.00;;;;;;;;4955226;28;45530;-67
2022/05/13 10:43:22;;;;;;;;;0.00;0.00;;;;;;;;4953642;28;45629;-67
2022/05/13 10:45:49;;;;;;;;;0.00;0.00;;;;;;;;4954847;28;45499;-67
2022/05/13 10:48:17;;;;;;;;;0.00;0.00;;;;;;;;4954149;28;45571;-67
2022/05/13 10:50:55;;;;;;;;;2.00;0.50;;;;;;;;4954678;28;45476;-66
2022/05/13 10:53:36;;;;;;;;;0.25;0.00;;;;;;;;4954003;28;48582;-67
2022/05/13 10:56:04;;;;;;;;;0.50;0.50;;;;;;;;4954630;28;45422;-68
2022/05/13 10:58:34;;;;;;;;;2.00;1.00;;;;;;;;4954810;28;45369;-67
2022/05/13 11:01:07;;;;;;;;;0.75;0.75;;;;;;;;4955099;28;45395;-67
2022/05/13 11:03:51;;;;;;;;;0.75;0.00;;;;;;;;4954859;28;49032;-66
2022/05/13 11:06:19;;;;;;;;;0.25;0.25;;;;;;;;4954805;28;45469;-67
2022/05/13 11:09:01;;;;;;;;;1.00;1.00;;;;;;;;4954686;28;45519;-66
2022/05/13 11:11:38;;;;;;;;;0.50;0.50;;;;;;;;4938337;28;45593;-67
2022/05/13 11:14:06;;;;;;;;;1.25;0.50;;;;;;;;5015711;28;47767;-67
2022/05/13 11:16:34;;;;;;;;;0.25;0.00;;;;;;;;5030481;28;46055;-67
2022/05/13 11:19:14;;;;;;;;;0.75;0.75;;;;;;;;5035046;28;45326;-67
2022/05/13 11:21:40;;;;;;;;;0.00;0.00;;;;;;;;5036045;28;45412;-66
2022/05/13 11:27:07;;;;;;;;;2.00;1.00;;;;;;;;5033675;28;45366;-67
2022/05/13 11:29:32;;;;;;;;;3.00;1.00;;;;;;;;5033286;28;45299;-69
2022/05/13 11:32:03;;;;;;;;;1.50;1.00;;;;;;;;5033597;28;45301;-66
2022/05/13 11:34:47;;;;;;;;;1.00;1.00;;;;;;;;5033642;28;46478;-67
2022/05/13 11:37:15;;;;;;;;;1.00;1.00;;;;;;;;5031993;28;45385;-67
2022/05/13 11:39:56;;;;;;;;;1.00;1.00;;;;;;;;5035760;28;45421;-66
2022/05/13 11:42:21;;;;;;;;;1.00;1.00;;;;;;;;5033210;28;45670;-67
2022/05/13 11:44:49;;;;;;;;;1.00;1.00;;;;;;;;5033294;28;46529;-67
2022/05/13 11:47:19;;;;;;;;;0.25;0.25;;;;;;;;5033327;28;45421;-66
2022/05/13 11:49:47;;;;;;;;;0.75;0.75;;;;;;;;5032117;28;45384;-66
2022/05/13 11:52:12;;;;;;;;;1.00;1.00;;;;;;;;5048743;28;45534;-67
2022/05/13 11:54:37;;;;;;;;;2.00;1.25;;;;;;;;5029226;28;48259;-65
2022/05/13 11:57:24;;;;;;;;;1.00;1.00;;;;;;;;5029932;28;45531;-66
2022/05/13 11:59:51;;;;;;;;;1.00;1.00;;;;;;;;5033508;28;45497;-67
2022/05/13 12:02:32;;;;;;;;;1.75;1.00;;;;;;;;5033311;28;45475;-66
2022/05/13 12:05:06;;;;;;;;;2.75;2.00;;;;;;;;5032107;28;45683;-66
2022/05/13 12:07:33;;;;;;;;;1.25;1.25;;;;;;;;5032966;28;45499;-67
2022/05/13 12:09:59;;;;;;;;;2.25;1.25;;;;;;;;5034680;28;45379;-66
2022/05/13 12:12:34;;;;;;;;;1.00;1.00;;;;;;;;5034208;28;45401;-67
2022/05/13 12:15:09;;;;;;;;;1.00;1.00;;;;;;;;5032852;28;46567;-66
2022/05/13 12:17:46;;;;;;;;;2.00;2.00;;;;;;;;5033083;28;45535;-67
2022/05/13 12:20:11;;;;;;;;;2.00;2.00;;;;;;;;5030382;28;45544;-67
2022/05/13 12:22:53;;;;;;;;;2.75;1.50;;;;;;;;5030596;28;45492;-67
2022/05/13 12:25:30;;;;;;;;;0.00;0.00;;;;;;;;5032990;28;45604;-67
2022/05/13 12:28:03;;;;;;;;;1.50;1.50;;;;;;;;5034504;28;45346;-67
2022/05/13 12:30:34;;;;;;;;;1.00;1.00;;;;;;;;5033885;28;45399;-66
2022/05/13 12:33:23;;;;;;;;;2.00;2.00;;;;;;;;5031365;28;45456;-66
2022/05/13 12:39:03;;;;;;;;;2.00;1.00;;;;;;;;5030199;28;45310;-67
2022/05/13 12:41:50;;;;;;;;;1.00;1.00;;;;;;;;5033609;28;45274;-66
2022/05/13 12:44:15;;;;;;;;;4.75;4.75;;;;;;;;5025951;28;45399;-67
2022/05/13 12:46:48;;;;;;;;;1.00;1.00;;;;;;;;5032552;28;46076;-66
2022/05/13 12:49:27;;;;;;;;;2.50;1.00;;;;;;;;5030882;28;45531;-66
2022/05/13 12:52:11;;;;;;;;;1.00;1.00;;;;;;;;5033531;28;45473;-66
2022/05/13 12:54:40;;;;;;;;;1.00;1.00;;;;;;;;5034449;28;45383;-67
2022/05/13 12:57:15;;;;;;;;;1.00;1.00;;;;;;;;5027316;28;46869;-66
2022/05/13 12:59:42;;;;;;;;;1.50;1.50;;;;;;;;5038349;28;45384;-67
2022/05/13 13:02:08;;;;;;;;;2.50;1.75;;;;;;;;5020275;28;45508;-66
2022/05/13 13:04:36;;;;;;;;;2.00;2.00;;;;;;;;5032281;28;45247;-66
2022/05/13 13:07:06;;;;;;;;;1.25;1.25;;;;;;;;5031343;28;47787;-67
2022/05/13 13:09:34;;;;;;;;;0.75;0.75;;;;;;;;5046320;28;45860;-66
2022/05/13 13:12:16;;;;;;;;;1.00;1.00;;;;;;;;5028203;28;45485;-66
2022/05/13 13:14:41;;;;;;;;;2.00;0.50;;;;;;;;5030578;28;45457;-67
2022/05/13 13:17:10;;;;;;;;;2.50;1.50;;;;;;;;5035277;28;46270;-65
2022/05/13 13:19:38;;;;;;;;;1.00;1.00;;;;;;;;5032727;28;46149;-68
2022/05/13 13:22:08;;;;;;;;;1.00;0.75;;;;;;;;5036101;28;45239;-66
2022/05/13 13:24:35;;;;;;;;;1.00;1.00;;;;;;;;5031694;28;45584;-67
2022/05/13 13:27:00;;;;;;;;;0.00;0.00;;;;;;;;5034027;28;48735;-67
2022/05/13 13:29:28;;;;;;;;;1.00;1.00;;;;;;;;5033605;28;46117;-67
2022/05/13 13:31:56;;;;;;;;;0.50;0.50;;;;;;;;5034055;28;45425;-67
2022/05/13 13:34:29;;;;;;;;;1.50;0.00;;;;;;;;5034384;28;45414;-66
2022/05/13 13:36:55;;;;;;;;;1.00;1.00;;;;;;;;5035462;28;46537;-67
2022/05/13 13:39:21;;;;;;;;;0.00;0.00;;;;;;;;5031619;28;45440;-68
2022/05/13 13:41:47;;;;;;;;;2.00;1.00;;;;;;;;5029960;28;45480;-67
2022/05/13 13:44:13;;;;;;;;;2.00;0.25;;;;;;;;5033681;28;45863;-66
2022/05/13 13:46:43;;;;;;;;;0.75;0.75;;;;;;;;5033798;28;48393;-66
2022/05/13 13:49:12;;;;;;;;;2.75;1.00;;;;;;;;5031271;28;45635;-65
2022/05/13 13:51:46;;;;;;;;;0.00;0.00;;;;;;;;5037352;28;45420;-66
2022/05/13 13:54:14;;;;;;;;;1.75;1.25;;;;;;;;5036968;28;45538;-66
2022/05/13 13:56:46;;;;;;;;;1.00;1.00;;;;;;;;5042908;28;48483;-67
2022/05/13 13:59:15;;;;;;;;;0.00;0.00;;;;;;;;5042582;28;45631;-66
2022/05/13 14:01:50;;;;;;;;;1.00;1.00;;;;;;;;5040811;28;45569;-67
2022/05/13 14:04:23;;;;;;;;;0.00;0.00;;;;;;;;5049894;28;45406;-67
2022/05/13 14:06:50;;;;;;;;;2.00;1.00;;;;;;;;5042290;28;48623;-66
2022/05/13 14:09:18;;;;;;;;;0.25;0.25;;;;;;;;5045583;28;45533;-67
2022/05/13 14:11:43;;;;;;;;;1.00;1.00;;;;;;;;5038499;28;45560;-67
2022/05/13 14:14:09;;;;;;;;;3.00;1.00;;;;;;;;5040745;28;45444;-65
2022/05/13 14:16:42;;;;;;;;;1.00;1.00;;;;;;;;5047921;28;46507;-68
2022/05/13 14:19:09;;;;;;;;;1.00;1.00;;;;;;;;5041802;28;45434;-67
2022/05/13 14:21:35;;;;;;;;;1.50;0.00;;;;;;;;5048076;28;45390;-68
2022/05/13 14:24:05;;;;;;;;;0.00;0.00;;;;;;;;5027072;28;45622;-67
2022/05/13 14:26:47;;;;;;;;;2.00;1.50;;;;;;;;5042496;28;49550;-67
2022/05/13 14:29:14;;;;;;;;;0.75;0.25;;;;;;;;5040785;28;45361;-67
2022/05/13 14:31:39;;;;;;;;;1.25;1.25;;;;;;;;5038553;28;45489;-66
2022/05/13 14:34:20;;;;;;;;;1.00;0.00;;;;;;;;5049781;28;45413;-65
2022/05/13 14:36:46;;;;;;;;;0.25;0.25;;;;;;;;5033046;28;47814;-67
2022/05/13 14:42:08;;;;;;;;;1.00;1.00;;;;;;;;5033562;28;45539;-68
2022/05/13 14:44:37;;;;;;;;;1.75;1.00;;;;;;;;5042214;28;45568;-66
2022/05/13 14:47:03;;;;;;;;;0.00;0.00;;;;;;;;5043833;28;45588;-67
2022/05/13 14:49:33;;;;;;;;;0.00;0.00;;;;;;;;5031563;28;45465;-67
2022/05/13 14:51:59;;;;;;;;;0.25;0.25;;;;;;;;5041026;28;45372;-67
2022/05/13 14:54:25;;;;;;;;;0.00;0.00;;;;;;;;5037227;28;45470;-66
2022/05/13 14:56:54;;;;;;;;;0.00;0.00;;;;;;;;5040935;28;45557;-67
2022/05/13 14:59:28;;;;;;;;;1.00;1.00;;;;;;;;5039782;28;46172;-67
2022/05/13 15:01:53;;;;;;;;;1.00;1.00;;;;;;;;5040288;28;45283;-67
2022/05/13 15:04:27;;;;;;;;;0.25;0.25;;;;;;;;5038778;28;45646;-67
2022/05/13 15:06:52;;;;;;;;;0.75;0.75;;;;;;;;5038298;28;48061;-67
2022/05/13 15:09:19;;;;;;;;;2.00;1.00;;;;;;;;5031780;28;45421;-66
2022/05/13 15:11:49;;;;;;;;;0.50;0.50;;;;;;;;5033075;28;45471;-65
2022/05/13 15:14:14;;;;;;;;;1.00;0.00;;;;;;;;5039427;28;45271;-66